sensor_id;sensor_type;location;lat;lon;timestamp;temperature;humidity
37426;DHT22;23285;50.180;7.036;2023-02-15T00:01:55;5.50;99.90
37426;DHT22;23285;50.180;7.036;2023-02-15T00:04:42;5.30;99.90
37426;DHT22;23285;50.180;7.036;2023-02-15T00:10:21;5.40;99.90
37426;DHT22;23285;50.180;7.036;2023-02-15T00:13:08;5.60;99.90
37426;DHT22;23285;50.180;7.036;2023-02-15T00:15:56;5.90;99.90
37426;DHT22;23285;50.180;7.036;2023-02-15T00:18:47;5.30;99.90
37426;DHT22;23285;50.180;7.036;2023-02-15T00:21:34;5.40;99.90
37426;DHT22;23285;50.180;7.036;2023-02-15T00:24:21;5.40;99.90
37426;DHT22;23285;50.180;7.036;2023-02-15T00:27:07;5.00;99.90
37426;DHT22;23285;50.180;7.036;2023-02-15T00:29:54;5.30;99.90
37426;DHT22;23285;50.180;7.036;2023-02-15T00:32:41;5.00;99.90
37426;DHT22;23285;50.180;7.036;2023-02-15T00:35:28;5.00;99.90
37426;DHT22;23285;50.180;7.036;2023-02-15T00:38:15;5.20;99.90
37426;DHT22;23285;50.180;7.036;2023-02-15T00:43:53;5.00;99.90
37426;DHT22;23285;50.180;7.036;2023-02-15T00:46:39;5.30;99.90
37426;DHT22;23285;50.180;7.036;2023-02-15T00:49:27;5.10;99.90
37426;DHT22;23285;50.180;7.036;2023-02-15T00:52:15;4.90;99.90
37426;DHT22;23285;50.180;7.036;2023-02-15T00:55:01;4.90;99.90
37426;DHT22;23285;50.180;7.036;2023-02-15T00:57:47;4.70;99.90
37426;DHT22;23285;50.180;7.036;2023-02-15T01:03:21;4.50;99.90
37426;DHT22;23285;50.180;7.036;2023-02-15T01:06:08;4.30;99.90
37426;DHT22;23285;50.180;7.036;2023-02-15T01:08:55;4.70;99.90
37426;DHT22;23285;50.180;7.036;2023-02-15T01:11:42;4.90;99.90
37426;DHT22;23285;50.180;7.036;2023-02-15T01:14:27;4.90;99.90
37426;DHT22;23285;50.180;7.036;2023-02-15T01:17:14;4.80;99.90
37426;DHT22;23285;50.180;7.036;2023-02-15T01:20:01;4.90;99.90
37426;DHT22;23285;50.180;7.036;2023-02-15T01:22:48;5.20;99.90
37426;DHT22;23285;50.180;7.036;2023-02-15T01:25:36;4.90;99.90
37426;DHT22;23285;50.180;7.036;2023-02-15T01:28:22;5.10;99.90
37426;DHT22;23285;50.180;7.036;2023-02-15T01:31:10;5.30;99.90
37426;DHT22;23285;50.180;7.036;2023-02-15T01:33:57;5.50;99.90
37426;DHT22;23285;50.180;7.036;2023-02-15T01:36:43;5.20;99.90
37426;DHT22;23285;50.180;7.036;2023-02-15T01:39:30;5.20;99.90
37426;DHT22;23285;50.180;7.036;2023-02-15T01:45:19;4.60;99.90
37426;DHT22;23285;50.180;7.036;2023-02-15T01:51:00;4.80;99.90
37426;DHT22;23285;50.180;7.036;2023-02-15T01:53:50;4.90;99.90
37426;DHT22;23285;50.180;7.036;2023-02-15T01:56:38;5.00;99.90
37426;DHT22;23285;50.180;7.036;2023-02-15T01:59:27;4.70;99.90
37426;DHT22;23285;50.180;7.036;2023-02-15T02:05:06;5.50;99.90
37426;DHT22;23285;50.180;7.036;2023-02-15T02:07:56;5.60;99.90
37426;DHT22;23285;50.180;7.036;2023-02-15T02:13:29;5.40;99.90
37426;DHT22;23285;50.180;7.036;2023-02-15T02:22:46;5.50;99.90
37426;DHT22;23285;50.180;7.036;2023-02-15T02:26:18;5.50;99.90
37426;DHT22;23285;50.180;7.036;2023-02-15T02:36:06;4.30;99.90
37426;DHT22;23285;50.180;7.036;2023-02-15T02:39:13;4.30;99.90
37426;DHT22;23285;50.180;7.036;2023-02-15T02:42:09;4.10;99.90
37426;DHT22;23285;50.180;7.036;2023-02-15T02:45:02;4.40;99.90
37426;DHT22;23285;50.180;7.036;2023-02-15T02:50:41;4.30;99.90
37426;DHT22;23285;50.180;7.036;2023-02-15T02:53:30;4.20;99.90
37426;DHT22;23285;50.180;7.036;2023-02-15T03:02:04;4.50;99.90
37426;DHT22;23285;50.180;7.036;2023-02-15T03:04:55;4.50;99.90
37426;DHT22;23285;50.180;7.036;2023-02-15T03:10:39;4.40;99.90
37426;DHT22;23285;50.180;7.036;2023-02-15T03:16:16;4.60;99.90
37426;DHT22;23285;50.180;7.036;2023-02-15T03:19:15;4.50;99.90
37426;DHT22;23285;50.180;7.036;2023-02-15T03:22:05;4.60;99.90
37426;DHT22;23285;50.180;7.036;2023-02-15T03:24:57;4.50;99.90
37426;DHT22;23285;50.180;7.036;2023-02-15T03:27:49;4.70;99.90
37426;DHT22;23285;50.180;7.036;2023-02-15T03:30:40;4.60;99.90
37426;DHT22;23285;50.180;7.036;2023-02-15T03:33:28;4.40;99.90
37426;DHT22;23285;50.180;7.036;2023-02-15T03:36:18;4.20;99.90
37426;DHT22;23285;50.180;7.036;2023-02-15T03:47:42;4.10;99.90
37426;DHT22;23285;50.180;7.036;2023-02-15T03:50:31;3.90;99.90
37426;DHT22;23285;50.180;7.036;2023-02-15T03:53:36;4.00;99.90
37426;DHT22;23285;50.180;7.036;2023-02-15T03:59:09;4.00;99.90
37426;DHT22;23285;50.180;7.036;2023-02-15T04:02:34;3.60;99.90
37426;DHT22;23285;50.180;7.036;2023-02-15T04:05:24;3.40;99.90
37426;DHT22;23285;50.180;7.036;2023-02-15T04:08:11;3.70;99.90
37426;DHT22;23285;50.180;7.036;2023-02-15T04:10:58;4.10;99.90
37426;DHT22;23285;50.180;7.036;2023-02-15T04:16:31;4.20;99.90
37426;DHT22;23285;50.180;7.036;2023-02-15T04:19:18;4.50;99.90
37426;DHT22;23285;50.180;7.036;2023-02-15T04:25:26;4.40;99.90
37426;DHT22;23285;50.180;7.036;2023-02-15T04:30:59;4.00;99.90
37426;DHT22;23285;50.180;7.036;2023-02-15T04:33:46;3.90;99.90
37426;DHT22;23285;50.180;7.036;2023-02-15T04:36:34;3.80;99.90
37426;DHT22;23285;50.180;7.036;2023-02-15T04:39:20;3.70;99.90
37426;DHT22;23285;50.180;7.036;2023-02-15T04:44:53;4.00;99.90
37426;DHT22;23285;50.180;7.036;2023-02-15T04:50:26;4.00;99.90
37426;DHT22;23285;50.180;7.036;2023-02-15T04:53:13;3.70;99.90
37426;DHT22;23285;50.180;7.036;2023-02-15T04:56:02;3.70;99.90
37426;DHT22;23285;50.180;7.036;2023-02-15T04:58:48;3.60;99.90
37426;DHT22;23285;50.180;7.036;2023-02-15T05:01:35;3.90;99.90
37426;DHT22;23285;50.180;7.036;2023-02-15T05:04:21;4.10;99.90
37426;DHT22;23285;50.180;7.036;2023-02-15T05:09:55;3.60;99.90
37426;DHT22;23285;50.180;7.036;2023-02-15T05:15:28;3.80;99.90
37426;DHT22;23285;50.180;7.036;2023-02-15T05:18:14;3.50;99.90
37426;DHT22;23285;50.180;7.036;2023-02-15T05:21:01;3.20;99.90
37426;DHT22;23285;50.180;7.036;2023-02-15T05:23:47;3.00;99.90
37426;DHT22;23285;50.180;7.036;2023-02-15T05:29:40;3.60;99.90
37426;DHT22;23285;50.180;7.036;2023-02-15T05:32:27;3.60;99.90
37426;DHT22;23285;50.180;7.036;2023-02-15T05:35:14;3.40;99.90
37426;DHT22;23285;50.180;7.036;2023-02-15T05:38:01;3.50;99.90
37426;DHT22;23285;50.180;7.036;2023-02-15T05:40:47;3.40;99.90
37426;DHT22;23285;50.180;7.036;2023-02-15T05:43:35;3.60;99.90
37426;DHT22;23285;50.180;7.036;2023-02-15T05:46:21;3.70;99.90
37426;DHT22;23285;50.180;7.036;2023-02-15T05:49:08;3.80;99.90
37426;DHT22;23285;50.180;7.036;2023-02-15T05:51:54;3.80;99.90
37426;DHT22;23285;50.180;7.036;2023-02-15T05:54:40;3.80;99.90
37426;DHT22;23285;50.180;7.036;2023-02-15T05:57:27;3.60;99.90
37426;DHT22;23285;50.180;7.036;2023-02-15T06:00:15;3.60;99.90
37426;DHT22;23285;50.180;7.036;2023-02-15T06:03:02;3.50;99.90
37426;DHT22;23285;50.180;7.036;2023-02-15T06:05:49;4.00;99.90
37426;DHT22;23285;50.180;7.036;2023-02-15T06:08:37;3.70;99.90
37426;DHT22;23285;50.180;7.036;2023-02-15T06:11:23;3.80;99.90
37426;DHT22;23285;50.180;7.036;2023-02-15T06:14:09;3.50;99.90
37426;DHT22;23285;50.180;7.036;2023-02-15T06:16:57;3.40;99.90
37426;DHT22;23285;50.180;7.036;2023-02-15T06:19:43;3.60;99.90
37426;DHT22;23285;50.180;7.036;2023-02-15T06:25:16;3.20;99.90
37426;DHT22;23285;50.180;7.036;2023-02-15T06:30:50;3.30;99.90
37426;DHT22;23285;50.180;7.036;2023-02-15T06:41:57;4.00;99.90
37426;DHT22;23285;50.180;7.036;2023-02-15T06:44:44;3.70;99.90
37426;DHT22;23285;50.180;7.036;2023-02-15T06:47:30;3.50;99.90
37426;DHT22;23285;50.180;7.036;2023-02-15T06:53:05;3.50;99.90
37426;DHT22;23285;50.180;7.036;2023-02-15T06:55:51;3.30;99.90
37426;DHT22;23285;50.180;7.036;2023-02-15T06:58:39;4.00;99.90
37426;DHT22;23285;50.180;7.036;2023-02-15T07:07:00;3.20;99.90
37426;DHT22;23285;50.180;7.036;2023-02-15T07:09:46;3.30;99.90
37426;DHT22;23285;50.180;7.036;2023-02-15T07:15:29;3.30;99.90
37426;DHT22;23285;50.180;7.036;2023-02-15T07:18:15;3.30;99.90
37426;DHT22;23285;50.180;7.036;2023-02-15T07:21:02;3.70;99.90
37426;DHT22;23285;50.180;7.036;2023-02-15T07:23:50;3.90;99.90
37426;DHT22;23285;50.180;7.036;2023-02-15T07:29:23;3.90;99.90
37426;DHT22;23285;50.180;7.036;2023-02-15T07:32:10;3.20;99.90
37426;DHT22;23285;50.180;7.036;2023-02-15T07:34:56;3.60;99.90
37426;DHT22;23285;50.180;7.036;2023-02-15T07:37:44;4.10;99.90
37426;DHT22;23285;50.180;7.036;2023-02-15T07:40:32;4.10;99.90
37426;DHT22;23285;50.180;7.036;2023-02-15T07:46:06;3.50;99.90
37426;DHT22;23285;50.180;7.036;2023-02-15T07:48:54;4.00;99.90
37426;DHT22;23285;50.180;7.036;2023-02-15T07:51:40;4.60;99.90
37426;DHT22;23285;50.180;7.036;2023-02-15T07:54:27;4.40;99.90
37426;DHT22;23285;50.180;7.036;2023-02-15T08:00:01;4.10;99.90
37426;DHT22;23285;50.180;7.036;2023-02-15T08:02:57;4.00;99.90
37426;DHT22;23285;50.180;7.036;2023-02-15T08:08:48;4.00;99.90
37426;DHT22;23285;50.180;7.036;2023-02-15T08:14:23;4.20;99.90
37426;DHT22;23285;50.180;7.036;2023-02-15T08:17:09;4.40;99.90
37426;DHT22;23285;50.180;7.036;2023-02-15T08:19:56;4.60;99.90
37426;DHT22;23285;50.180;7.036;2023-02-15T08:22:42;4.70;99.90
37426;DHT22;23285;50.180;7.036;2023-02-15T08:25:29;4.80;99.90
37426;DHT22;23285;50.180;7.036;2023-02-15T08:28:15;4.90;99.90
37426;DHT22;23285;50.180;7.036;2023-02-15T08:31:06;5.00;99.90
37426;DHT22;23285;50.180;7.036;2023-02-15T08:33:53;5.00;99.90
37426;DHT22;23285;50.180;7.036;2023-02-15T08:36:41;4.50;99.90
37426;DHT22;23285;50.180;7.036;2023-02-15T08:39:30;4.80;99.90
37426;DHT22;23285;50.180;7.036;2023-02-15T08:45:02;5.40;99.90
37426;DHT22;23285;50.180;7.036;2023-02-15T08:47:50;5.60;99.90
37426;DHT22;23285;50.180;7.036;2023-02-15T08:53:23;5.60;99.90
37426;DHT22;23285;50.180;7.036;2023-02-15T08:56:09;5.40;99.90
37426;DHT22;23285;50.180;7.036;2023-02-15T08:58:56;5.60;99.90
37426;DHT22;23285;50.180;7.036;2023-02-15T09:01:42;5.80;99.90
37426;DHT22;23285;50.180;7.036;2023-02-15T09:04:30;5.90;99.90
37426;DHT22;23285;50.180;7.036;2023-02-15T09:07:17;6.10;99.90
37426;DHT22;23285;50.180;7.036;2023-02-15T09:10:05;6.40;99.90
37426;DHT22;23285;50.180;7.036;2023-02-15T09:15:38;6.90;99.90
37426;DHT22;23285;50.180;7.036;2023-02-15T09:21:15;7.40;99.90
37426;DHT22;23285;50.180;7.036;2023-02-15T09:26:49;7.00;99.90
37426;DHT22;23285;50.180;7.036;2023-02-15T09:29:35;7.00;99.90
37426;DHT22;23285;50.180;7.036;2023-02-15T09:32:22;7.20;99.90
37426;DHT22;23285;50.180;7.036;2023-02-15T09:35:08;7.40;99.90
37426;DHT22;23285;50.180;7.036;2023-02-15T09:37:56;7.20;99.90
37426;DHT22;23285;50.180;7.036;2023-02-15T09:43:40;7.50;99.90
37426;DHT22;23285;50.180;7.036;2023-02-15T09:46:42;7.60;99.90
37426;DHT22;23285;50.180;7.036;2023-02-15T09:52:39;6.70;99.90
37426;DHT22;23285;50.180;7.036;2023-02-15T09:58:39;7.00;99.90
37426;DHT22;23285;50.180;7.036;2023-02-15T10:04:44;7.60;99.90
37426;DHT22;23285;50.180;7.036;2023-02-15T10:07:52;7.80;99.90
37426;DHT22;23285;50.180;7.036;2023-02-15T10:10:53;8.10;99.90
37426;DHT22;23285;50.180;7.036;2023-02-15T10:13:44;8.30;99.90
37426;DHT22;23285;50.180;7.036;2023-02-15T10:16:40;8.60;99.90
37426;DHT22;23285;50.180;7.036;2023-02-15T10:22:29;8.80;99.90
37426;DHT22;23285;50.180;7.036;2023-02-15T10:25:31;9.00;99.90
37426;DHT22;23285;50.180;7.036;2023-02-15T10:28:26;9.10;99.90
37426;DHT22;23285;50.180;7.036;2023-02-15T10:31:22;9.20;99.90
37426;DHT22;23285;50.180;7.036;2023-02-15T10:37:25;8.90;99.90
37426;DHT22;23285;50.180;7.036;2023-02-15T10:40:20;9.00;99.90
37426;DHT22;23285;50.180;7.036;2023-02-15T10:43:23;9.20;99.90
37426;DHT22;23285;50.180;7.036;2023-02-15T10:46:21;9.70;99.90
37426;DHT22;23285;50.180;7.036;2023-02-15T10:49:22;9.80;99.90
37426;DHT22;23285;50.180;7.036;2023-02-15T10:55:09;9.80;99.90
37426;DHT22;23285;50.180;7.036;2023-02-15T10:58:05;10.10;99.90
37426;DHT22;23285;50.180;7.036;2023-02-15T11:01:01;10.20;99.90
37426;DHT22;23285;50.180;7.036;2023-02-15T11:04:12;10.50;99.90
37426;DHT22;23285;50.180;7.036;2023-02-15T11:09:53;10.20;99.90
37426;DHT22;23285;50.180;7.036;2023-02-15T11:12:43;10.50;99.90
37426;DHT22;23285;50.180;7.036;2023-02-15T11:18:25;10.80;99.90
37426;DHT22;23285;50.180;7.036;2023-02-15T11:21:19;10.90;99.90
37426;DHT22;23285;50.180;7.036;2023-02-15T11:24:10;11.10;99.90
37426;DHT22;23285;50.180;7.036;2023-02-15T11:32:40;11.40;99.90
37426;DHT22;23285;50.180;7.036;2023-02-15T11:38:20;11.20;99.90
37426;DHT22;23285;50.180;7.036;2023-02-15T11:43:59;11.50;99.90
37426;DHT22;23285;50.180;7.036;2023-02-15T11:46:47;11.70;99.90
37426;DHT22;23285;50.180;7.036;2023-02-15T11:49:34;11.60;99.90
37426;DHT22;23285;50.180;7.036;2023-02-15T11:52:23;11.80;99.90
37426;DHT22;23285;50.180;7.036;2023-02-15T11:58:03;12.40;99.90
37426;DHT22;23285;50.180;7.036;2023-02-15T12:00:56;12.30;99.90
37426;DHT22;23285;50.180;7.036;2023-02-15T12:03:47;12.40;99.90
37426;DHT22;23285;50.180;7.036;2023-02-15T12:06:37;12.70;99.70
37426;DHT22;23285;50.180;7.036;2023-02-15T12:12:21;12.50;99.60
37426;DHT22;23285;50.180;7.036;2023-02-15T12:15:10;12.30;99.50
37426;DHT22;23285;50.180;7.036;2023-02-15T12:17:56;12.80;99.60
37426;DHT22;23285;50.180;7.036;2023-02-15T12:20:43;12.80;98.20
37426;DHT22;23285;50.180;7.036;2023-02-15T12:23:30;12.90;98.30
37426;DHT22;23285;50.180;7.036;2023-02-15T12:29:16;13.10;98.90
37426;DHT22;23285;50.180;7.036;2023-02-15T12:34:51;13.30;98.50
37426;DHT22;23285;50.180;7.036;2023-02-15T12:37:38;13.70;97.40
37426;DHT22;23285;50.180;7.036;2023-02-15T12:43:25;13.40;98.50
37426;DHT22;23285;50.180;7.036;2023-02-15T12:46:19;13.40;97.40
37426;DHT22;23285;50.180;7.036;2023-02-15T12:49:14;13.60;97.80
37426;DHT22;23285;50.180;7.036;2023-02-15T12:52:05;13.70;97.50
37426;DHT22;23285;50.180;7.036;2023-02-15T12:54:52;14.00;97.80
37426;DHT22;23285;50.180;7.036;2023-02-15T12:57:39;13.80;97.10
37426;DHT22;23285;50.180;7.036;2023-02-15T13:00:29;13.90;97.30
37426;DHT22;23285;50.180;7.036;2023-02-15T13:06:04;14.50;97.50
37426;DHT22;23285;50.180;7.036;2023-02-15T13:11:42;14.60;96.60
37426;DHT22;23285;50.180;7.036;2023-02-15T13:14:31;14.70;96.20
37426;DHT22;23285;50.180;7.036;2023-02-15T13:23:08;15.00;95.80
37426;DHT22;23285;50.180;7.036;2023-02-15T13:25:59;15.30;96.10
37426;DHT22;23285;50.180;7.036;2023-02-15T13:28:50;15.30;96.20
37426;DHT22;23285;50.180;7.036;2023-02-15T13:31:39;15.20;96.10
37426;DHT22;23285;50.180;7.036;2023-02-15T13:34:30;15.60;96.20
37426;DHT22;23285;50.180;7.036;2023-02-15T13:37:21;15.80;96.00
37426;DHT22;23285;50.180;7.036;2023-02-15T13:40:14;15.40;95.90
37426;DHT22;23285;50.180;7.036;2023-02-15T13:43:05;15.60;95.70
37426;DHT22;23285;50.180;7.036;2023-02-15T13:46:09;15.70;96.00
37426;DHT22;23285;50.180;7.036;2023-02-15T13:49:08;15.80;96.00
37426;DHT22;23285;50.180;7.036;2023-02-15T13:55:27;15.80;94.50
37426;DHT22;23285;50.180;7.036;2023-02-15T13:58:41;15.90;94.40
37426;DHT22;23285;50.180;7.036;2023-02-15T14:01:39;15.90;93.70
37426;DHT22;23285;50.180;7.036;2023-02-15T14:13:43;16.40;93.50
37426;DHT22;23285;50.180;7.036;2023-02-15T14:16:39;16.20;93.60
37426;DHT22;23285;50.180;7.036;2023-02-15T14:19:34;15.80;93.90
37426;DHT22;23285;50.180;7.036;2023-02-15T14:22:28;15.60;94.30
37426;DHT22;23285;50.180;7.036;2023-02-15T14:25:24;15.90;93.20
37426;DHT22;23285;50.180;7.036;2023-02-15T14:28:16;15.90;93.20
37426;DHT22;23285;50.180;7.036;2023-02-15T14:36:40;16.60;92.40
37426;DHT22;23285;50.180;7.036;2023-02-15T14:39:35;16.40;91.30
37426;DHT22;23285;50.180;7.036;2023-02-15T14:48:31;15.70;92.60
37426;DHT22;23285;50.180;7.036;2023-02-15T14:54:57;15.30;93.00
37426;DHT22;23285;50.180;7.036;2023-02-15T14:57:55;15.50;92.80
37426;DHT22;23285;50.180;7.036;2023-02-15T15:00:43;15.70;92.70
37426;DHT22;23285;50.180;7.036;2023-02-15T15:03:29;15.60;92.50
37426;DHT22;23285;50.180;7.036;2023-02-15T15:06:24;15.40;93.50
37426;DHT22;23285;50.180;7.036;2023-02-15T15:09:14;15.70;92.80
37426;DHT22;23285;50.180;7.036;2023-02-15T15:12:39;15.60;92.40
37426;DHT22;23285;50.180;7.036;2023-02-15T15:15:45;15.40;92.70
37426;DHT22;23285;50.180;7.036;2023-02-15T15:21:53;15.50;93.10
37426;DHT22;23285;50.180;7.036;2023-02-15T15:24:50;15.00;94.40
37426;DHT22;23285;50.180;7.036;2023-02-15T15:27:51;14.30;95.40
37426;DHT22;23285;50.180;7.036;2023-02-15T15:31:02;14.20;94.40
37426;DHT22;23285;50.180;7.036;2023-02-15T15:34:22;14.00;95.70
37426;DHT22;23285;50.180;7.036;2023-02-15T15:44:06;13.50;96.90
37426;DHT22;23285;50.180;7.036;2023-02-15T15:47:23;13.40;96.40
37426;DHT22;23285;50.180;7.036;2023-02-15T15:50:15;13.10;97.10
37426;DHT22;23285;50.180;7.036;2023-02-15T15:53:02;12.60;96.90
37426;DHT22;23285;50.180;7.036;2023-02-15T15:58:44;12.20;98.20
37426;DHT22;23285;50.180;7.036;2023-02-15T16:01:37;12.40;97.40
37426;DHT22;23285;50.180;7.036;2023-02-15T16:07:25;11.60;98.50
37426;DHT22;23285;50.180;7.036;2023-02-15T16:13:07;11.20;99.70
37426;DHT22;23285;50.180;7.036;2023-02-15T16:21:31;11.10;99.90
37426;DHT22;23285;50.180;7.036;2023-02-15T16:24:43;10.80;99.90
37426;DHT22;23285;50.180;7.036;2023-02-15T16:27:36;10.50;99.90
37426;DHT22;23285;50.180;7.036;2023-02-15T16:30:26;10.40;99.90
37426;DHT22;23285;50.180;7.036;2023-02-15T16:33:14;10.40;99.90
37426;DHT22;23285;50.180;7.036;2023-02-15T16:36:02;10.60;99.90
37426;DHT22;23285;50.180;7.036;2023-02-15T16:39:17;10.30;99.90
37426;DHT22;23285;50.180;7.036;2023-02-15T16:42:05;10.30;99.90
37426;DHT22;23285;50.180;7.036;2023-02-15T16:47:41;10.20;99.90
37426;DHT22;23285;50.180;7.036;2023-02-15T16:50:31;10.30;99.90
37426;DHT22;23285;50.180;7.036;2023-02-15T16:56:08;10.30;99.90
37426;DHT22;23285;50.180;7.036;2023-02-15T16:58:55;10.40;99.70
37426;DHT22;23285;50.180;7.036;2023-02-15T17:01:44;10.20;99.90
37426;DHT22;23285;50.180;7.036;2023-02-15T17:04:31;10.40;99.90
37426;DHT22;23285;50.180;7.036;2023-02-15T17:07:20;10.30;99.90
37426;DHT22;23285;50.180;7.036;2023-02-15T17:13:15;9.90;99.90
37426;DHT22;23285;50.180;7.036;2023-02-15T17:16:28;9.60;99.90
37426;DHT22;23285;50.180;7.036;2023-02-15T17:19:19;9.50;99.90
37426;DHT22;23285;50.180;7.036;2023-02-15T17:22:06;9.40;99.90
37426;DHT22;23285;50.180;7.036;2023-02-15T17:27:44;9.20;99.90
37426;DHT22;23285;50.180;7.036;2023-02-15T17:30:37;9.20;99.90
37426;DHT22;23285;50.180;7.036;2023-02-15T17:44:40;9.60;99.90
37426;DHT22;23285;50.180;7.036;2023-02-15T17:50:19;9.60;99.90
37426;DHT22;23285;50.180;7.036;2023-02-15T17:53:08;8.80;99.90
37426;DHT22;23285;50.180;7.036;2023-02-15T17:55:55;9.10;99.90
37426;DHT22;23285;50.180;7.036;2023-02-15T17:58:41;9.00;99.90
37426;DHT22;23285;50.180;7.036;2023-02-15T18:01:28;9.10;99.90
37426;DHT22;23285;50.180;7.036;2023-02-15T18:04:36;9.00;99.90
37426;DHT22;23285;50.180;7.036;2023-02-15T18:07:40;9.00;99.90
37426;DHT22;23285;50.180;7.036;2023-02-15T18:10:43;9.00;99.90
37426;DHT22;23285;50.180;7.036;2023-02-15T18:16:35;8.60;99.90
37426;DHT22;23285;50.180;7.036;2023-02-15T18:19:24;8.20;99.90
37426;DHT22;23285;50.180;7.036;2023-02-15T18:24:59;8.80;99.90
37426;DHT22;23285;50.180;7.036;2023-02-15T18:27:45;9.10;99.90
37426;DHT22;23285;50.180;7.036;2023-02-15T18:33:34;9.10;99.90
37426;DHT22;23285;50.180;7.036;2023-02-15T18:36:23;8.50;99.90
37426;DHT22;23285;50.180;7.036;2023-02-15T18:42:19;8.90;99.90
37426;DHT22;23285;50.180;7.036;2023-02-15T18:45:14;8.80;99.90
37426;DHT22;23285;50.180;7.036;2023-02-15T18:53:34;8.10;99.90
37426;DHT22;23285;50.180;7.036;2023-02-15T18:56:22;8.00;99.90
37426;DHT22;23285;50.180;7.036;2023-02-15T19:07:33;8.10;99.90
37426;DHT22;23285;50.180;7.036;2023-02-15T19:10:22;8.20;99.90
37426;DHT22;23285;50.180;7.036;2023-02-15T19:15:57;7.90;99.90
37426;DHT22;23285;50.180;7.036;2023-02-15T19:18:43;7.90;99.90
37426;DHT22;23285;50.180;7.036;2023-02-15T19:21:30;8.40;99.90
37426;DHT22;23285;50.180;7.036;2023-02-15T19:24:19;8.50;99.90
37426;DHT22;23285;50.180;7.036;2023-02-15T19:27:08;7.90;99.90
37426;DHT22;23285;50.180;7.036;2023-02-15T19:30:13;8.40;99.90
37426;DHT22;23285;50.180;7.036;2023-02-15T19:33:00;8.60;99.90
37426;DHT22;23285;50.180;7.036;2023-02-15T19:35:51;8.40;99.90
37426;DHT22;23285;50.180;7.036;2023-02-15T19:38:40;8.20;99.90
37426;DHT22;23285;50.180;7.036;2023-02-15T19:41:31;7.90;99.90
37426;DHT22;23285;50.180;7.036;2023-02-15T19:44:18;7.90;99.90
37426;DHT22;23285;50.180;7.036;2023-02-15T19:47:10;7.50;99.90
37426;DHT22;23285;50.180;7.036;2023-02-15T19:49:57;7.20;99.90
37426;DHT22;23285;50.180;7.036;2023-02-15T19:58:21;7.30;99.90
37426;DHT22;23285;50.180;7.036;2023-02-15T20:01:08;7.70;99.90
37426;DHT22;23285;50.180;7.036;2023-02-15T20:03:56;7.60;99.90
37426;DHT22;23285;50.180;7.036;2023-02-15T20:06:44;7.70;99.90
37426;DHT22;23285;50.180;7.036;2023-02-15T20:09:32;8.10;99.90
37426;DHT22;23285;50.180;7.036;2023-02-15T20:12:23;8.50;99.90
37426;DHT22;23285;50.180;7.036;2023-02-15T20:15:18;8.80;99.90
37426;DHT22;23285;50.180;7.036;2023-02-15T20:18:04;8.80;99.90
37426;DHT22;23285;50.180;7.036;2023-02-15T20:20:53;8.60;99.90
37426;DHT22;23285;50.180;7.036;2023-02-15T20:23:40;8.50;99.90
37426;DHT22;23285;50.180;7.036;2023-02-15T20:26:26;8.90;99.90
37426;DHT22;23285;50.180;7.036;2023-02-15T20:34:48;7.70;99.90
37426;DHT22;23285;50.180;7.036;2023-02-15T20:37:36;7.90;99.90
37426;DHT22;23285;50.180;7.036;2023-02-15T20:40:25;8.00;99.90
37426;DHT22;23285;50.180;7.036;2023-02-15T20:43:13;7.80;99.90
37426;DHT22;23285;50.180;7.036;2023-02-15T20:46:00;7.50;99.90
37426;DHT22;23285;50.180;7.036;2023-02-15T20:51:33;7.40;99.90
37426;DHT22;23285;50.180;7.036;2023-02-15T20:57:10;7.60;99.90
37426;DHT22;23285;50.180;7.036;2023-02-15T21:02:45;7.40;99.90
37426;DHT22;23285;50.180;7.036;2023-02-15T21:05:31;7.60;99.90
37426;DHT22;23285;50.180;7.036;2023-02-15T21:08:21;7.90;99.90
37426;DHT22;23285;50.180;7.036;2023-02-15T21:11:17;7.80;99.90
37426;DHT22;23285;50.180;7.036;2023-02-15T21:14:04;7.60;99.90
37426;DHT22;23285;50.180;7.036;2023-02-15T21:16:51;8.20;99.90
37426;DHT22;23285;50.180;7.036;2023-02-15T21:25:13;8.10;99.90
37426;DHT22;23285;50.180;7.036;2023-02-15T21:28:02;7.80;99.90
37426;DHT22;23285;50.180;7.036;2023-02-15T21:33:36;7.30;99.90
37426;DHT22;23285;50.180;7.036;2023-02-15T21:36:23;7.70;99.90
37426;DHT22;23285;50.180;7.036;2023-02-15T21:39:14;7.90;99.90
37426;DHT22;23285;50.180;7.036;2023-02-15T21:42:01;7.90;99.90
37426;DHT22;23285;50.180;7.036;2023-02-15T21:48:17;7.60;99.90
37426;DHT22;23285;50.180;7.036;2023-02-15T21:54:10;7.30;99.90
37426;DHT22;23285;50.180;7.036;2023-02-15T22:02:32;7.40;99.90
37426;DHT22;23285;50.180;7.036;2023-02-15T22:05:21;7.10;99.90
37426;DHT22;23285;50.180;7.036;2023-02-15T22:08:10;6.80;99.90
37426;DHT22;23285;50.180;7.036;2023-02-15T22:13:45;7.50;99.90
37426;DHT22;23285;50.180;7.036;2023-02-15T22:16:32;7.90;99.90
37426;DHT22;23285;50.180;7.036;2023-02-15T22:22:07;7.50;99.90
37426;DHT22;23285;50.180;7.036;2023-02-15T22:27:40;6.90;99.90
37426;DHT22;23285;50.180;7.036;2023-02-15T22:30:29;6.80;99.90
37426;DHT22;23285;50.180;7.036;2023-02-15T22:36:21;6.90;99.90
37426;DHT22;23285;50.180;7.036;2023-02-15T22:39:07;6.90;99.90
37426;DHT22;23285;50.180;7.036;2023-02-15T22:47:28;6.60;99.90
37426;DHT22;23285;50.180;7.036;2023-02-15T22:50:18;6.60;99.90
37426;DHT22;23285;50.180;7.036;2023-02-15T22:55:55;6.50;99.90
37426;DHT22;23285;50.180;7.036;2023-02-15T22:58:43;6.50;99.90
37426;DHT22;23285;50.180;7.036;2023-02-15T23:01:33;6.50;99.90
37426;DHT22;23285;50.180;7.036;2023-02-15T23:04:21;6.90;99.90
37426;DHT22;23285;50.180;7.036;2023-02-15T23:07:12;6.40;99.90
37426;DHT22;23285;50.180;7.036;2023-02-15T23:18:41;6.40;99.90
37426;DHT22;23285;50.180;7.036;2023-02-15T23:21:29;6.20;99.90
37426;DHT22;23285;50.180;7.036;2023-02-15T23:24:18;6.10;99.90
37426;DHT22;23285;50.180;7.036;2023-02-15T23:27:08;6.10;99.90
37426;DHT22;23285;50.180;7.036;2023-02-15T23:33:00;6.00;99.90
37426;DHT22;23285;50.180;7.036;2023-02-15T23:35:46;5.90;99.90
37426;DHT22;23285;50.180;7.036;2023-02-15T23:38:32;6.00;99.90
37426;DHT22;23285;50.180;7.036;2023-02-15T23:41:22;6.00;99.90
37426;DHT22;23285;50.180;7.036;2023-02-15T23:44:09;5.70;99.90
37426;DHT22;23285;50.180;7.036;2023-02-15T23:46:57;5.90;99.90
37426;DHT22;23285;50.180;7.036;2023-02-15T23:49:43;5.80;99.90
37426;DHT22;23285;50.180;7.036;2023-02-15T23:52:29;5.60;99.90
37426;DHT22;23285;50.180;7.036;2023-02-15T23:58:03;6.20;99.90
